Aérodrome :
LOGIN :

S'inscrire | Disclaimer

   EN    FR    IT 

 










Légende :    VFR   VFR Marginal   IFR   IFR Intensif   IFR Très Intensif
Visi : 
Plafond : 
>= 8 km
>= 3000ft
5 à 8 km
1000 à 3000 ft
1500m à 5 km
500 à 1000 ft
800 à 1500m
200 à 500 ft
< 800m
< 200 ft
Symboles :   Orages  Brouillard  Fortes neiges  Fortes précipitations  Vent > 20 kt
SIGMETs :   Divers  Orages  Givrage  Turbulence  Onde Orograph.  Cendres Volcan.







- Altitude de l'aérodrome : 187 ft


ETNW - Wunstorf AB

DERNIER METAR :
  • 191620Z 31005KT 9999 FEW050 SCT090 BKN220 26/11 Q1013 BLU+

METARs EXPIRÉS :
  • 191520Z 31007KT 9999 FEW045 SCT080 BKN230 25/11 Q1013 BLU+
  • 191420Z 31008KT 9999 SCT045 BKN250 24/12 Q1013 BLU+

TAF TAF ETNW
Valide du 19 à 17h jusqu'au 20 à 17h UTC


191600Z 1917/2017 29010KT 9999 NSW SCT040 SCT300
BECMG 1918/1920 VRB03KT 9999 NSW SCT080 BKN150
BECMG 2005/2007 16010KT 9999 NSW FEW070 SCT180
TEMPO 2012/2017 22015G25KT 3000 SHRA BKN020CB
PROB30 2013/2017 VRB20G40KT 2000 TSGR BKN005 BKN020CB BY ETGL
Pas de NOTAMs connus pour ce terrain.



MET'MAP, la Météo Aéronautique d'un coup d'oeil ! - Copyright ORBIFLY Décembre 2007 - Disclaimer

ORBIFLY MET'MAP TEAM :

Programmation & Développement : Alexandra Zaïnal
Conception & Développement : Baudouin d'Aumeries
Co-Programmation & Développement : Marc-Olivier Méhu
Soutien technique & logistique : Manuel Goepfert

Contact : metmap@orbifly.com




SOURCES & CREDITS :

   NOAA